Time;durP1;ratioP1;P1;durP2;ratioP2;P2;SDS_P1;SDS_P2;PMS_P1;PMS_P2;Temp;Humidity;BMP_temperature;BMP_pressure;BME280_temperature;BME280_humidity;BME280_pressure;Samples;Min_cycle;Max_cycle;Signal;HPM_P1;HPM_P2
2022/03/07 00:01:29;;;;;;;12.82;7.68;;;-0.10;97.00;;;;;;4964579;28;20098;-67
2022/03/07 00:03:55;;;;;;;11.30;7.68;;;-0.10;97.10;;;;;;4963796;28;20042;-68
2022/03/07 00:06:22;;;;;;;9.38;7.70;;;-0.20;97.60;;;;;;4949343;28;20065;-68
2022/03/07 00:08:48;;;;;;;18.67;8.52;;;-0.20;97.30;;;;;;4950805;28;20043;-68
2022/03/07 00:11:15;;;;;;;12.80;8.70;;;-0.30;97.40;;;;;;4963697;28;20042;-68
2022/03/07 00:13:41;;;;;;;12.02;7.75;;;-0.30;97.60;;;;;;4952544;28;20038;-68
2022/03/07 00:16:07;;;;;;;12.32;8.13;;;-0.30;97.60;;;;;;4964602;28;20760;-68
2022/03/07 00:18:33;;;;;;;11.32;7.75;;;-0.30;97.80;;;;;;4952776;28;20042;-68
2022/03/07 00:20:58;;;;;;;15.02;8.90;;;-0.30;97.90;;;;;;4948555;28;20487;-68
2022/03/07 00:23:24;;;;;;;12.98;8.80;;;-0.40;97.80;;;;;;4949540;28;20129;-67
2022/03/07 00:25:50;;;;;;;13.02;9.25;;;-0.40;97.90;;;;;;4966372;28;20066;-68
2022/03/07 00:28:16;;;;;;;13.98;9.63;;;-0.40;98.00;;;;;;4965889;28;20046;-68
2022/03/07 00:30:42;;;;;;;15.15;10.50;;;-0.50;98.20;;;;;;4961418;28;20050;-68
2022/03/07 00:33:08;;;;;;;15.82;9.10;;;-0.50;98.20;;;;;;4947278;28;20516;-68
2022/03/07 00:35:34;;;;;;;13.43;9.40;;;-0.50;98.30;;;;;;4951871;28;20039;-68
2022/03/07 00:37:59;;;;;;;16.20;10.25;;;-0.60;98.40;;;;;;4949451;28;20141;-67
2022/03/07 00:40:25;;;;;;;15.80;10.98;;;-0.60;98.40;;;;;;4945909;28;20612;-67
2022/03/07 00:42:51;;;;;;;15.23;11.75;;;-0.60;98.50;;;;;;4963809;28;20545;-67
2022/03/07 00:45:17;;;;;;;18.85;12.68;;;-0.60;98.60;;;;;;4966495;28;20418;-67
2022/03/07 00:47:43;;;;;;;17.45;10.70;;;-0.60;98.70;;;;;;4968091;28;20635;-67
2022/03/07 00:50:09;;;;;;;17.77;11.55;;;-0.70;98.70;;;;;;4949386;28;20126;-68
2022/03/07 00:52:35;;;;;;;18.27;11.18;;;-0.80;98.70;;;;;;4961356;28;20082;-68
2022/03/07 00:55:01;;;;;;;14.63;10.07;;;-0.80;99.00;;;;;;4934492;28;20113;-68
2022/03/07 00:57:27;;;;;;;14.27;10.10;;;-0.80;98.90;;;;;;4959450;28;20483;-68
2022/03/07 00:59:53;;;;;;;15.27;9.88;;;-0.80;99.10;;;;;;4963990;28;20035;-68
2022/03/07 01:02:19;;;;;;;11.90;9.60;;;-0.80;99.30;;;;;;4948424;28;20053;-68
2022/03/07 01:04:45;;;;;;;14.02;10.05;;;-0.80;99.60;;;;;;4962381;28;20045;-68
2022/03/07 01:07:11;;;;;;;15.15;9.50;;;-0.80;99.90;;;;;;4962435;28;20061;-68
2022/03/07 01:09:37;;;;;;;12.30;8.30;;;-0.90;99.90;;;;;;4963937;28;20070;-68
2022/03/07 01:12:03;;;;;;;10.68;8.40;;;-0.90;99.90;;;;;;4946355;28;20050;-68
2022/03/07 01:14:29;;;;;;;13.63;8.38;;;-0.90;99.80;;;;;;4954045;28;20053;-68
2022/03/07 01:16:54;;;;;;;11.50;8.80;;;-0.90;99.90;;;;;;4930619;28;20043;-68
2022/03/07 01:19:20;;;;;;;16.10;10.65;;;-1.00;99.90;;;;;;4962238;28;20046;-68
2022/03/07 01:21:46;;;;;;;10.23;8.65;;;-1.00;99.90;;;;;;4950520;28;20039;-68
2022/03/07 01:24:12;;;;;;;12.10;8.82;;;-1.00;99.90;;;;;;4945688;28;20473;-68
2022/03/07 01:26:38;;;;;;;12.57;8.75;;;-1.00;99.90;;;;;;4951476;28;20367;-68
2022/03/07 01:29:04;;;;;;;13.10;9.48;;;-1.10;99.90;;;;;;4961805;28;20039;-68
2022/03/07 01:31:30;;;;;;;14.77;9.90;;;-1.10;99.90;;;;;;4950069;28;20051;-68
2022/03/07 01:33:56;;;;;;;13.90;10.23;;;-1.10;99.90;;;;;;4945692;28;20042;-68
2022/03/07 01:36:22;;;;;;;13.95;9.85;;;-1.10;99.90;;;;;;4951241;28;20043;-69
2022/03/07 01:38:48;;;;;;;14.40;10.43;;;-1.10;99.90;;;;;;4946921;28;20166;-69
2022/03/07 01:41:14;;;;;;;18.17;10.10;;;-1.10;99.90;;;;;;4967585;28;20039;-68
2022/03/07 01:43:41;;;;;;;15.57;9.75;;;-1.10;99.90;;;;;;4948300;28;20061;-69
2022/03/07 01:46:08;;;;;;;14.25;9.07;;;-1.10;99.90;;;;;;4954757;28;21275;-69
2022/03/07 01:48:36;;;;;;;13.57;9.32;;;-1.20;99.90;;;;;;4946601;28;20462;-69
2022/03/07 01:51:01;;;;;;;13.52;8.98;;;-1.20;99.90;;;;;;4947370;28;20031;-69
2022/03/07 01:53:27;;;;;;;13.73;9.63;;;-1.20;99.90;;;;;;4947170;28;20651;-69
2022/03/07 01:55:55;;;;;;;12.82;8.70;;;-1.20;99.90;;;;;;4945650;28;20047;-69
2022/03/07 01:58:21;;;;;;;12.63;7.85;;;-1.20;99.90;;;;;;4949563;28;20505;-69
2022/03/07 02:00:47;;;;;;;11.52;8.20;;;-1.30;99.90;;;;;;4948527;28;20487;-69
2022/03/07 02:03:13;;;;;;;12.13;8.43;;;-1.30;99.90;;;;;;4946964;28;20066;-69
2022/03/07 02:05:45;;;;;;;11.93;8.40;;;-1.30;99.90;;;;;;4947764;28;20051;-69
2022/03/07 02:08:11;;;;;;;13.75;9.48;;;-1.40;99.90;;;;;;4943053;28;20368;-68
2022/03/07 02:10:37;;;;;;;13.25;9.23;;;-1.40;99.90;;;;;;4946840;28;20031;-69
2022/03/07 02:13:13;;;;;;;11.27;8.27;;;-1.40;99.90;;;;;;4948128;28;20490;-69
2022/03/07 02:15:39;;;;;;;11.77;8.25;;;-1.40;99.90;;;;;;4949449;28;20042;-69
2022/03/07 02:18:05;;;;;;;12.73;8.90;;;-1.40;99.90;;;;;;4944313;28;20063;-69
2022/03/07 02:20:31;;;;;;;11.30;7.88;;;-1.50;99.90;;;;;;4944030;28;20492;-69
2022/03/07 02:22:57;;;;;;;13.02;8.15;;;-1.50;99.90;;;;;;4946711;28;20043;-69
2022/03/07 02:25:22;;;;;;;14.15;7.93;;;-1.50;99.90;;;;;;4942258;28;20043;-69
2022/03/07 02:27:48;;;;;;;10.55;8.65;;;-1.50;99.90;;;;;;4944951;28;20138;-69
2022/03/07 02:30:14;;;;;;;14.98;8.43;;;-1.60;99.90;;;;;;4943919;28;20645;-69
2022/03/07 02:32:43;;;;;;;13.60;8.48;;;-1.60;99.90;;;;;;4943226;28;20420;-69
2022/03/07 02:35:14;;;;;;;11.48;8.38;;;-1.60;99.90;;;;;;4943697;28;20050;-69
2022/03/07 02:37:40;;;;;;;10.70;7.65;;;-1.60;99.90;;;;;;4947706;28;20043;-69
2022/03/07 02:40:06;;;;;;;11.50;7.88;;;-1.60;99.90;;;;;;4943179;28;20043;-69
2022/03/07 02:42:32;;;;;;;12.23;7.88;;;-1.70;99.90;;;;;;4958327;28;20450;-69
2022/03/07 02:44:57;;;;;;;12.23;8.23;;;-1.70;99.90;;;;;;4941575;28;20068;-70
2022/03/07 02:47:23;;;;;;;10.75;7.60;;;-1.70;99.90;;;;;;4945192;28;20121;-70
2022/03/07 02:49:50;;;;;;;10.63;8.35;;;-1.70;99.90;;;;;;4941890;28;20039;-70
2022/03/07 02:52:16;;;;;;;12.48;8.15;;;-1.70;99.90;;;;;;4927164;28;20047;-70
2022/03/07 02:54:41;;;;;;;13.48;8.75;;;-1.80;99.90;;;;;;4943532;28;20047;-70
2022/03/07 02:57:07;;;;;;;9.93;8.05;;;-1.80;99.90;;;;;;4946001;28;20046;-70
2022/03/07 02:59:34;;;;;;;9.95;7.15;;;-1.80;99.90;;;;;;4938724;28;20185;-70
2022/03/07 03:01:59;;;;;;;10.07;7.78;;;-1.80;99.90;;;;;;4942352;28;20817;-70
2022/03/07 03:04:25;;;;;;;11.20;8.30;;;-1.90;99.90;;;;;;4947713;28;20059;-70
2022/03/07 03:06:51;;;;;;;11.45;8.75;;;-1.90;99.90;;;;;;4941811;28;20047;-70
2022/03/07 03:09:16;;;;;;;10.63;7.80;;;-1.90;99.90;;;;;;4961029;28;20579;-71
2022/03/07 03:11:42;;;;;;;12.60;7.43;;;-1.90;99.90;;;;;;4940750;28;20059;-70
2022/03/07 03:14:08;;;;;;;11.63;7.45;;;-1.90;99.90;;;;;;4944344;28;20055;-70
2022/03/07 03:16:34;;;;;;;9.52;7.40;;;-2.00;99.90;;;;;;4939164;28;20200;-70
2022/03/07 03:18:59;;;;;;;12.00;7.88;;;-2.00;99.90;;;;;;4961696;28;20142;-70
2022/03/07 03:21:25;;;;;;;15.05;8.18;;;-2.00;99.90;;;;;;4947481;28;20050;-70
2022/03/07 03:23:51;;;;;;;10.13;7.18;;;-2.00;99.90;;;;;;4946897;28;20038;-70
2022/03/07 03:26:17;;;;;;;11.35;7.97;;;-2.00;99.90;;;;;;4944192;28;20139;-70
2022/03/07 03:28:42;;;;;;;11.43;8.32;;;-2.10;99.90;;;;;;4951130;28;20050;-70
2022/03/07 03:31:11;;;;;;;10.63;7.50;;;-2.10;99.90;;;;;;4945650;28;20051;-70
2022/03/07 03:33:38;;;;;;;11.50;7.78;;;-2.10;99.90;;;;;;4951976;28;20062;-70
2022/03/07 03:36:05;;;;;;;11.13;7.70;;;-2.10;99.90;;;;;;4957219;28;20117;-69
2022/03/07 03:38:30;;;;;;;11.88;7.57;;;-2.10;99.90;;;;;;4949283;28;20043;-69
2022/03/07 03:40:56;;;;;;;15.07;7.45;;;-2.20;99.90;;;;;;4949534;28;20053;-70
2022/03/07 03:43:22;;;;;;;9.48;7.78;;;-2.20;99.90;;;;;;4949285;28;20053;-69
2022/03/07 03:45:48;;;;;;;9.88;7.63;;;-2.20;99.90;;;;;;4950402;28;20077;-69
2022/03/07 03:48:14;;;;;;;10.48;6.95;;;-2.20;99.90;;;;;;4951158;28;20101;-70
2022/03/07 03:50:40;;;;;;;12.98;7.35;;;-2.20;99.90;;;;;;4965323;28;20410;-70
2022/03/07 03:53:05;;;;;;;9.80;7.32;;;-2.20;99.90;;;;;;4950714;28;20051;-69
2022/03/07 03:55:31;;;;;;;10.50;7.18;;;-2.20;99.90;;;;;;4953369;28;20121;-69
2022/03/07 03:57:57;;;;;;;11.82;7.85;;;-2.30;99.90;;;;;;4954701;28;20108;-69
2022/03/07 04:00:24;;;;;;;9.00;7.10;;;-2.30;99.90;;;;;;4954017;28;20034;-69
2022/03/07 04:02:50;;;;;;;11.75;7.95;;;-2.30;99.90;;;;;;4947519;28;20078;-70
2022/03/07 04:05:16;;;;;;;12.23;8.43;;;-2.30;99.90;;;;;;4950700;28;20439;-70
2022/03/07 04:07:43;;;;;;;9.70;7.45;;;-2.30;99.90;;;;;;4951291;28;20117;-70
2022/03/07 04:10:10;;;;;;;10.55;6.85;;;-2.30;99.90;;;;;;4948914;28;20057;-70
2022/03/07 04:12:36;;;;;;;8.73;6.57;;;-2.30;99.90;;;;;;4945161;28;20157;-70
2022/03/07 04:15:03;;;;;;;13.13;7.47;;;-2.30;99.90;;;;;;4935414;28;20431;-70
2022/03/07 04:17:28;;;;;;;10.45;7.68;;;-2.40;99.90;;;;;;4948133;28;20057;-70
2022/03/07 04:19:54;;;;;;;11.73;7.05;;;-2.40;99.90;;;;;;4950095;28;20415;-70
2022/03/07 04:22:20;;;;;;;11.07;7.82;;;-2.40;99.90;;;;;;4951858;28;20086;-70
2022/03/07 04:24:46;;;;;;;12.15;7.40;;;-2.40;99.90;;;;;;4944220;28;20182;-70
2022/03/07 04:27:11;;;;;;;10.77;7.47;;;-2.40;99.90;;;;;;4933649;28;20450;-70
2022/03/07 04:29:37;;;;;;;10.75;7.15;;;-2.50;99.90;;;;;;4962529;28;20411;-70
2022/03/07 04:32:03;;;;;;;12.18;7.60;;;-2.40;99.90;;;;;;4955729;28;20403;-70
2022/03/07 04:34:29;;;;;;;10.52;7.85;;;-2.40;99.90;;;;;;4949049;28;20492;-70
2022/03/07 04:36:55;;;;;;;9.95;8.52;;;-2.40;99.90;;;;;;4962196;28;20137;-70
2022/03/07 04:39:20;;;;;;;12.35;8.40;;;-2.40;99.90;;;;;;4950378;28;20380;-70
2022/03/07 04:41:46;;;;;;;10.77;8.32;;;-2.50;99.90;;;;;;4965158;28;20053;-70
2022/03/07 04:44:12;;;;;;;11.30;8.20;;;-2.40;99.90;;;;;;4946458;28;20050;-70
2022/03/07 04:46:38;;;;;;;10.55;7.55;;;-2.40;99.90;;;;;;4945971;28;20581;-70
2022/03/07 04:49:04;;;;;;;8.52;7.47;;;-2.40;99.90;;;;;;4933190;28;20179;-70
2022/03/07 04:51:30;;;;;;;9.88;8.30;;;-2.40;99.90;;;;;;4952002;28;20425;-70
2022/03/07 04:53:56;;;;;;;9.48;7.85;;;-2.40;99.90;;;;;;4932446;28;20044;-70
2022/03/07 04:56:22;;;;;;;10.82;7.80;;;-2.30;99.90;;;;;;4949251;28;20054;-70
2022/03/07 04:58:47;;;;;;;9.57;7.40;;;-2.40;99.90;;;;;;4946445;28;20027;-70
2022/03/07 05:01:14;;;;;;;12.95;7.68;;;-2.40;99.90;;;;;;4962837;28;20050;-70
2022/03/07 05:03:40;;;;;;;10.75;7.57;;;-2.30;99.90;;;;;;4949415;28;20058;-70
2022/03/07 05:06:08;;;;;;;9.38;8.07;;;-2.30;99.90;;;;;;4947474;28;20050;-70
2022/03/07 05:08:34;;;;;;;10.48;7.72;;;-2.30;99.90;;;;;;4950545;28;20460;-70
2022/03/07 05:11:01;;;;;;;10.68;8.48;;;-2.30;99.90;;;;;;4948929;28;20042;-70
2022/03/07 05:13:26;;;;;;;16.38;8.30;;;-2.30;99.90;;;;;;4948739;28;20050;-70
2022/03/07 05:15:52;;;;;;;11.50;8.93;;;-2.30;99.90;;;;;;4930659;28;20609;-70
2022/03/07 05:18:18;;;;;;;14.98;11.00;;;-2.20;99.90;;;;;;4933850;28;20047;-70
2022/03/07 05:20:44;;;;;;;25.50;12.82;;;-2.20;99.90;;;;;;4965756;28;20134;-70
2022/03/07 05:23:09;;;;;;;14.65;10.70;;;-2.20;99.90;;;;;;4949452;28;20050;-70
2022/03/07 05:25:35;;;;;;;16.10;9.85;;;-2.10;99.90;;;;;;4965223;28;20085;-70
2022/03/07 05:28:01;;;;;;;14.98;11.02;;;-2.10;99.90;;;;;;4948506;28;20086;-70
2022/03/07 05:30:27;;;;;;;13.98;9.40;;;-2.10;99.90;;;;;;4949021;28;20077;-70
2022/03/07 05:32:53;;;;;;;18.45;10.52;;;-2.00;99.90;;;;;;4946139;28;20073;-70
2022/03/07 05:35:21;;;;;;;14.05;11.00;;;-2.10;99.90;;;;;;4948827;28;20039;-70
2022/03/07 05:37:47;;;;;;;15.70;10.48;;;-2.10;99.90;;;;;;4949881;28;20051;-70
2022/03/07 05:40:14;;;;;;;16.95;11.20;;;-2.10;99.90;;;;;;4961101;28;20122;-70
2022/03/07 05:42:40;;;;;;;14.60;10.68;;;-2.10;99.90;;;;;;4947206;28;20031;-70
2022/03/07 05:45:08;;;;;;;14.85;10.90;;;-2.00;99.90;;;;;;4951230;28;20049;-70
2022/03/07 05:47:34;;;;;;;15.05;11.10;;;-2.00;99.90;;;;;;4930819;28;20062;-70
2022/03/07 05:50:00;;;;;;;15.88;11.55;;;-1.90;99.90;;;;;;4949040;28;20046;-70
2022/03/07 05:52:27;;;;;;;16.92;11.30;;;-1.90;99.90;;;;;;4945248;28;20345;-70
2022/03/07 05:54:53;;;;;;;15.15;11.38;;;-1.90;99.90;;;;;;4948311;28;20112;-70
2022/03/07 05:57:19;;;;;;;17.58;13.40;;;-1.90;99.90;;;;;;4946839;28;20046;-70
2022/03/07 05:59:45;;;;;;;18.83;11.57;;;-1.80;99.90;;;;;;4949269;28;20051;-70
2022/03/07 06:02:10;;;;;;;15.10;11.90;;;-1.70;99.90;;;;;;4953983;28;20050;-70
2022/03/07 06:04:36;;;;;;;16.60;10.32;;;-1.70;99.90;;;;;;4959752;28;20439;-70
2022/03/07 06:07:02;;;;;;;13.43;9.60;;;-1.60;99.90;;;;;;4946797;28;20518;-70
2022/03/07 06:09:27;;;;;;;14.40;10.27;;;-1.60;99.90;;;;;;4948313;28;20374;-70
2022/03/07 06:11:53;;;;;;;15.27;10.50;;;-1.60;99.90;;;;;;4946304;28;20050;-70
2022/03/07 06:14:19;;;;;;;16.17;10.50;;;-1.50;99.90;;;;;;4951260;28;20050;-70
2022/03/07 06:16:44;;;;;;;16.33;10.95;;;-1.50;99.90;;;;;;4947514;28;20122;-70
2022/03/07 06:19:10;;;;;;;16.77;11.90;;;-1.50;99.90;;;;;;4947117;28;20525;-70
2022/03/07 06:21:36;;;;;;;16.00;11.10;;;-1.40;99.90;;;;;;4947258;28;20046;-70
2022/03/07 06:24:02;;;;;;;20.85;12.60;;;-1.40;99.90;;;;;;4948477;28;20137;-70
2022/03/07 06:26:27;;;;;;;19.13;12.25;;;-1.40;99.90;;;;;;4947644;28;20092;-70
2022/03/07 06:28:53;;;;;;;18.75;12.38;;;-1.40;99.90;;;;;;4946655;28;20434;-70
2022/03/07 06:31:19;;;;;;;19.08;12.80;;;-1.30;99.90;;;;;;4949301;28;20054;-70
2022/03/07 06:33:45;;;;;;;21.85;13.18;;;-1.20;99.90;;;;;;4946108;28;20054;-70
2022/03/07 06:36:10;;;;;;;209.05;133.70;;;-1.20;99.90;;;;;;4949583;28;20038;-70
2022/03/07 06:38:39;;;;;;;20.95;15.15;;;-1.10;99.90;;;;;;4946932;28;20050;-70
2022/03/07 06:41:05;;;;;;;24.88;14.40;;;-1.10;99.90;;;;;;4946718;28;20055;-70
2022/03/07 06:43:31;;;;;;;22.35;13.70;;;-1.10;99.90;;;;;;4946049;28;20153;-70
2022/03/07 06:45:57;;;;;;;19.42;13.05;;;-1.00;99.90;;;;;;4947738;28;20202;-70
2022/03/07 06:48:22;;;;;;;21.67;13.02;;;-1.00;99.90;;;;;;4946163;28;20621;-70
2022/03/07 06:50:48;;;;;;;16.65;12.23;;;-0.90;99.90;;;;;;4966470;28;20108;-70
2022/03/07 06:53:14;;;;;;;23.17;13.05;;;-0.90;99.90;;;;;;4950683;28;20121;-70
2022/03/07 06:55:40;;;;;;;19.90;13.30;;;-0.80;99.90;;;;;;4936508;28;20062;-69
2022/03/07 06:58:06;;;;;;;22.27;13.27;;;-0.60;99.90;;;;;;4951269;28;20046;-69
2022/03/07 07:00:32;;;;;;;18.60;13.40;;;-0.50;99.90;;;;;;4960001;28;20586;-69
2022/03/07 07:02:57;;;;;;;19.63;13.60;;;-0.40;99.90;;;;;;4943495;28;20055;-71
2022/03/07 07:05:23;;;;;;;20.33;15.05;;;-0.30;99.90;;;;;;4943940;28;20121;-70
2022/03/07 07:07:49;;;;;;;21.45;14.30;;;-0.10;99.90;;;;;;4957841;28;20078;-70
2022/03/07 07:10:18;;;;;;;22.00;15.05;;;0.00;99.90;;;;;;4951227;28;20049;-70
2022/03/07 07:12:46;;;;;;;22.52;15.38;;;0.10;99.90;;;;;;4952391;28;20051;-70
2022/03/07 07:15:12;;;;;;;25.85;16.83;;;0.20;99.90;;;;;;4945323;28;20490;-70
2022/03/07 07:17:38;;;;;;;28.67;18.45;;;0.30;99.90;;;;;;4939705;28;20051;-70
2022/03/07 07:20:06;;;;;;;18.67;13.18;;;0.30;99.90;;;;;;4938928;28;20099;-70
2022/03/07 07:22:32;;;;;;;21.10;15.05;;;0.40;99.90;;;;;;4951777;28;20035;-70
2022/03/07 07:24:58;;;;;;;26.23;14.93;;;0.50;99.90;;;;;;4950147;28;20038;-70
2022/03/07 07:27:24;;;;;;;21.85;15.45;;;0.60;99.90;;;;;;4957185;28;20072;-70
2022/03/07 07:29:49;;;;;;;17.88;14.32;;;0.80;99.90;;;;;;4948488;28;20047;-70
2022/03/07 07:32:15;;;;;;;18.92;14.35;;;1.00;99.90;;;;;;4967163;28;20094;-70
2022/03/07 07:34:41;;;;;;;19.25;14.85;;;1.30;99.90;;;;;;4954611;28;20073;-70
2022/03/07 07:37:07;;;;;;;19.42;14.18;;;2.00;99.90;;;;;;4952341;28;20071;-70
2022/03/07 07:39:33;;;;;;;16.40;13.20;;;2.90;99.90;;;;;;4948690;28;20039;-70
2022/03/07 07:41:59;;;;;;;16.10;12.45;;;3.80;99.90;;;;;;4952572;28;20558;-70
2022/03/07 07:44:24;;;;;;;15.55;12.23;;;4.60;99.90;;;;;;4950949;28;20115;-70
2022/03/07 07:46:50;;;;;;;13.50;12.10;;;5.50;99.90;;;;;;4952380;28;20070;-70
2022/03/07 07:49:16;;;;;;;12.68;10.85;;;6.30;99.90;;;;;;4951844;28;20105;-70
2022/03/07 07:51:42;;;;;;;13.05;10.13;;;7.10;99.90;;;;;;4951074;28;20038;-70
2022/03/07 07:54:07;;;;;;;16.38;10.50;;;7.60;99.90;;;;;;4956677;28;20139;-70
2022/03/07 07:56:33;;;;;;;16.17;10.25;;;8.10;99.30;;;;;;4947923;28;20058;-70
2022/03/07 07:58:59;;;;;;;12.15;9.93;;;8.80;98.50;;;;;;4947627;28;20035;-70
2022/03/07 08:01:25;;;;;;;11.38;10.02;;;9.30;96.50;;;;;;4959527;28;20639;-70
2022/03/07 08:03:51;;;;;;;13.50;9.50;;;9.80;95.20;;;;;;4952498;28;20040;-70
2022/03/07 08:06:16;;;;;;;12.38;9.95;;;10.40;93.80;;;;;;4950974;28;20097;-70
2022/03/07 08:08:42;;;;;;;13.50;8.70;;;10.80;91.90;;;;;;4947246;28;20118;-70
2022/03/07 08:11:08;;;;;;;9.88;7.25;;;11.20;91.60;;;;;;4946260;28;20039;-70
2022/03/07 08:13:33;;;;;;;8.50;6.35;;;11.40;87.50;;;;;;4947971;28;20042;-70
2022/03/07 08:15:59;;;;;;;8.32;6.82;;;11.70;85.80;;;;;;4942873;28;20461;-70
2022/03/07 08:18:25;;;;;;;8.70;6.75;;;12.10;82.80;;;;;;4963685;28;20051;-70
2022/03/07 08:20:51;;;;;;;7.72;6.90;;;12.50;79.80;;;;;;4954081;28;20431;-70
2022/03/07 08:23:17;;;;;;;8.68;5.78;;;12.90;78.30;;;;;;4944014;28;20487;-70
2022/03/07 08:25:43;;;;;;;7.50;5.95;;;13.10;75.50;;;;;;4966915;28;20129;-70
2022/03/07 08:28:08;;;;;;;8.93;5.47;;;13.30;74.00;;;;;;4963890;28;20035;-70
2022/03/07 08:30:34;;;;;;;6.38;5.25;;;13.40;73.00;;;;;;4950423;28;20109;-70
2022/03/07 08:33:00;;;;;;;7.50;6.70;;;13.60;72.50;;;;;;4961967;28;20498;-70
2022/03/07 08:35:26;;;;;;;12.93;7.45;;;13.80;70.00;;;;;;4965603;28;20039;-70
2022/03/07 08:37:53;;;;;;;7.18;5.28;;;14.00;68.60;;;;;;4962440;28;20062;-70
2022/03/07 08:40:21;;;;;;;6.70;5.45;;;14.00;67.60;;;;;;4964338;28;20039;-70
2022/03/07 08:42:48;;;;;;;6.57;4.80;;;13.60;68.10;;;;;;4955082;28;20114;-70
2022/03/07 08:45:14;;;;;;;5.22;4.72;;;13.90;68.10;;;;;;4963735;28;20062;-70
2022/03/07 08:47:41;;;;;;;8.25;5.40;;;13.90;67.00;;;;;;4953338;28;20047;-70
2022/03/07 08:50:09;;;;;;;7.88;4.97;;;13.50;66.70;;;;;;4967234;28;20070;-70
2022/03/07 08:52:36;;;;;;;8.57;5.07;;;12.80;66.70;;;;;;4943425;28;20126;-70
2022/03/07 08:55:03;;;;;;;8.07;5.53;;;12.20;67.60;;;;;;4968322;28;20494;-70
2022/03/07 08:57:29;;;;;;;8.63;5.78;;;11.90;68.60;;;;;;4963858;28;20039;-70
2022/03/07 08:59:54;;;;;;;5.90;4.82;;;11.70;69.10;;;;;;4965047;28;20573;-70
2022/03/07 09:02:20;;;;;;;9.32;4.68;;;12.10;69.30;;;;;;4955678;28;21285;-70
2022/03/07 09:04:46;;;;;;;5.28;4.57;;;12.60;68.00;;;;;;4967701;28;20038;-70
2022/03/07 09:07:11;;;;;;;6.38;4.13;;;13.30;66.40;;;;;;4954143;28;20043;-70
2022/03/07 09:09:37;;;;;;;4.40;3.67;;;13.70;64.80;;;;;;4965459;28;20035;-70
2022/03/07 09:12:04;;;;;;;5.40;3.75;;;13.80;64.20;;;;;;4963784;28;20135;-70
2022/03/07 09:14:31;;;;;;;3.88;2.65;;;13.80;62.80;;;;;;4962660;28;20110;-70
2022/03/07 09:16:57;;;;;;;61.88;52.60;;;13.40;61.90;;;;;;4954539;28;20042;-70
2022/03/07 09:19:23;;;;;;;8.32;5.88;;;13.30;62.80;;;;;;4950855;28;20054;-70
2022/03/07 09:21:49;;;;;;;6.95;4.75;;;13.30;64.10;;;;;;4955390;28;20503;-70
2022/03/07 09:24:15;;;;;;;5.70;4.28;;;14.00;64.10;;;;;;4963544;28;20125;-70
2022/03/07 09:26:41;;;;;;;6.03;4.30;;;14.60;63.30;;;;;;4965008;28;20039;-70
2022/03/07 09:29:06;;;;;;;6.53;4.50;;;15.00;61.80;;;;;;4959244;28;20047;-70
2022/03/07 09:31:32;;;;;;;5.97;3.95;;;15.40;60.90;;;;;;4964782;28;20085;-70
2022/03/07 09:33:58;;;;;;;6.18;3.60;;;15.70;59.80;;;;;;4965260;28;20070;-70
2022/03/07 09:36:24;;;;;;;5.43;3.53;;;16.10;59.30;;;;;;4948884;28;20053;-70
2022/03/07 09:38:50;;;;;;;5.85;3.92;;;16.10;57.40;;;;;;4961300;28;20129;-70
2022/03/07 09:41:19;;;;;;;10.63;4.35;;;16.10;58.30;;;;;;4956165;28;20508;-70
2022/03/07 09:43:47;;;;;;;4.45;3.17;;;16.40;57.50;;;;;;4964852;28;20117;-70
2022/03/07 09:46:14;;;;;;;5.63;2.90;;;16.50;55.90;;;;;;4957741;28;20416;-70
2022/03/07 09:48:41;;;;;;;7.10;3.30;;;16.20;55.50;;;;;;4958326;28;20077;-70
2022/03/07 09:51:07;;;;;;;3.80;3.13;;;15.90;55.90;;;;;;4966387;28;20043;-70
2022/03/07 09:53:33;;;;;;;5.70;3.53;;;15.50;56.70;;;;;;4962270;28;20042;-70
2022/03/07 09:55:59;;;;;;;4.68;3.13;;;15.80;56.90;;;;;;4956729;28;20419;-70
2022/03/07 09:58:25;;;;;;;4.82;3.00;;;15.50;57.50;;;;;;4965617;28;20043;-70
2022/03/07 10:00:51;;;;;;;6.15;3.47;;;15.80;55.90;;;;;;4961817;28;20050;-70
2022/03/07 10:03:18;;;;;;;5.80;2.97;;;16.40;56.00;;;;;;4944522;28;20051;-70
2022/03/07 10:05:46;;;;;;;4.93;2.70;;;16.70;54.10;;;;;;4951398;28;20055;-70
2022/03/07 10:08:23;;;;;;;5.65;2.53;;;16.70;53.50;;;;;;4966854;28;20043;-70
2022/03/07 10:10:51;;;;;;;4.47;2.88;;;16.30;53.10;;;;;;4950713;28;20130;-70
2022/03/07 10:13:17;;;;;;;5.50;2.63;;;16.30;53.50;;;;;;4964866;28;20324;-70
2022/03/07 10:15:43;;;;;;;4.60;2.63;;;15.80;53.70;;;;;;4958116;28;20129;-70
2022/03/07 10:18:16;;;;;;;6.13;3.30;;;15.90;54.60;;;;;;4966319;28;20073;-70
2022/03/07 10:20:50;;;;;;;5.43;3.30;;;15.80;54.40;;;;;;4963640;28;20051;-70
2022/03/07 10:23:16;;;;;;;6.55;3.25;;;15.80;54.40;;;;;;4965051;28;20475;-70
2022/03/07 10:25:44;;;;;;;4.75;2.80;;;15.90;55.60;;;;;;4958591;28;20198;-70
2022/03/07 10:28:10;;;;;;;5.25;3.42;;;16.10;55.00;;;;;;4953007;28;20121;-70
2022/03/07 10:30:37;;;;;;;4.93;2.67;;;14.90;54.20;;;;;;4960461;28;20450;-69
2022/03/07 10:33:06;;;;;;;3.80;2.95;;;13.20;56.10;;;;;;4943295;28;20483;-69
2022/03/07 10:35:36;;;;;;;4.00;3.00;;;12.20;58.70;;;;;;4970162;28;20177;-68
2022/03/07 10:38:16;;;;;;;5.85;3.63;;;11.80;62.30;;;;;;4965706;28;20475;-68
2022/03/07 10:40:48;;;;;;;5.43;3.50;;;12.80;61.90;;;;;;4966043;28;20039;-69
2022/03/07 10:43:14;;;;;;;5.53;3.17;;;13.50;60.00;;;;;;4948312;28;20122;-68
2022/03/07 10:45:49;;;;;;;3.97;2.05;;;13.30;60.30;;;;;;4962479;28;20254;-68
2022/03/07 10:48:15;;;;;;;5.25;2.15;;;13.10;60.50;;;;;;4945430;28;20062;-68
2022/03/07 10:50:47;;;;;;;5.15;2.20;;;13.70;60.10;;;;;;4962237;28;20043;-69
2022/03/07 10:53:12;;;;;;;4.15;2.13;;;13.50;57.70;;;;;;4957270;28;20522;-69
2022/03/07 10:55:38;;;;;;;4.20;2.08;;;12.50;59.10;;;;;;4969657;28;20089;-69
2022/03/07 10:58:09;;;;;;;4.65;2.10;;;12.30;60.80;;;;;;4952922;28;20047;-69
2022/03/07 11:00:56;;;;;;;3.88;1.70;;;12.10;61.20;;;;;;4966242;28;20058;-69
2022/03/07 11:03:24;;;;;;;4.55;1.85;;;11.20;62.00;;;;;;4968757;28;20043;-69
2022/03/07 11:05:51;;;;;;;4.38;1.90;;;10.50;64.20;;;;;;4964141;28;20062;-69
2022/03/07 11:08:20;;;;;;;4.13;1.70;;;9.70;65.50;;;;;;4969260;28;20248;-69
2022/03/07 11:10:54;;;;;;;3.90;1.60;;;9.10;66.30;;;;;;4966080;28;20100;-69
2022/03/07 11:13:29;;;;;;;4.63;2.17;;;9.00;68.00;;;;;;4930642;28;20106;-69
2022/03/07 11:16:03;;;;;;;5.82;1.80;;;9.60;67.10;;;;;;4971793;28;20053;-69
2022/03/07 11:18:31;;;;;;;5.18;2.20;;;9.80;67.10;;;;;;4960816;28;20067;-69
2022/03/07 11:20:58;;;;;;;3.50;1.67;;;10.00;65.50;;;;;;4969259;28;20038;-69
2022/03/07 11:23:24;;;;;;;4.07;1.80;;;10.50;66.00;;;;;;4964933;28;20051;-69
2022/03/07 11:25:51;;;;;;;4.90;1.95;;;10.30;64.30;;;;;;4955113;28;20042;-69
2022/03/07 11:28:17;;;;;;;4.47;2.03;;;10.10;66.10;;;;;;4946522;28;20050;-69
2022/03/07 11:30:45;;;;;;;5.40;1.92;;;11.00;64.80;;;;;;4969735;28;20051;-69
2022/03/07 11:33:23;;;;;;;4.07;2.00;;;11.60;62.10;;;;;;4956191;28;20039;-69
2022/03/07 11:35:53;;;;;;;4.50;2.17;;;12.30;60.40;;;;;;4941818;28;20135;-69
2022/03/07 11:38:22;;;;;;;4.30;1.83;;;12.10;60.00;;;;;;4964476;28;20471;-69
2022/03/07 11:41:12;;;;;;;3.83;1.80;;;12.60;60.10;;;;;;4941875;28;20051;-69
2022/03/07 11:44:07;;;;;;;3.45;1.27;;;13.30;58.20;;;;;;4966952;28;20125;-69
2022/03/07 11:46:36;;;;;;;2.60;1.17;;;13.60;56.60;;;;;;4974309;28;20042;-69
2022/03/07 11:49:05;;;;;;;3.35;1.23;;;14.00;56.90;;;;;;4964099;28;20126;-69
2022/03/07 11:51:32;;;;;;;2.35;0.60;;;14.70;55.90;;;;;;4951821;28;20047;-70
2022/03/07 11:53:59;;;;;;;2.03;0.60;;;15.30;52.50;;;;;;4953804;28;20051;-70
2022/03/07 11:56:26;;;;;;;2.25;0.82;;;15.00;50.30;;;;;;4954301;28;20051;-70
2022/03/07 11:58:55;;;;;;;2.55;1.08;;;15.20;50.50;;;;;;4955975;28;20492;-69
2022/03/07 12:01:25;;;;;;;2.90;1.20;;;14.60;50.70;;;;;;4960305;28;20527;-69
2022/03/07 12:03:52;;;;;;;3.42;1.10;;;15.00;51.70;;;;;;4963237;28;20102;-70
2022/03/07 12:06:20;;;;;;;2.10;0.70;;;14.40;50.70;;;;;;4970661;28;20034;-69
2022/03/07 12:08:54;;;;;;;1.30;0.50;;;14.20;50.00;;;;;;4967389;28;20063;-69
2022/03/07 12:11:27;;;;;;;2.17;1.08;;;13.80;49.40;;;;;;4969068;28;20039;-69
2022/03/07 12:13:55;;;;;;;3.47;1.02;;;13.80;50.60;;;;;;4968242;28;20083;-69
2022/03/07 12:16:29;;;;;;;1.92;0.60;;;13.50;50.40;;;;;;4953166;28;20104;-69
2022/03/07 12:19:20;;;;;;;1.50;0.55;;;13.00;50.20;;;;;;4965737;28;20098;-69
2022/03/07 12:21:48;;;;;;;3.65;1.00;;;13.20;49.60;;;;;;4965294;28;20102;-69
2022/03/07 12:24:16;;;;;;;3.53;0.93;;;13.10;51.00;;;;;;4953765;28;20061;-69
2022/03/07 12:27:02;;;;;;;3.67;1.20;;;13.10;51.80;;;;;;4952324;28;20047;-69
2022/03/07 12:29:28;;;;;;;2.28;0.90;;;13.40;51.10;;;;;;4966330;28;20133;-69
2022/03/07 12:32:00;;;;;;;2.38;1.00;;;13.40;50.20;;;;;;4967262;28;20038;-69
2022/03/07 12:34:27;;;;;;;1.67;0.85;;;13.80;50.50;;;;;;4964773;28;20042;-69
2022/03/07 12:37:03;;;;;;;5.55;0.90;;;13.80;49.00;;;;;;4956155;28;20125;-69